createdAt,value
2022-10-30T00:00:10.993Z,21.20
2022-10-30T00:01:11.173Z,19.80
2022-10-30T00:02:11.518Z,29.10
2022-10-30T00:03:11.597Z,23.00
2022-10-30T00:04:11.682Z,20.40
2022-10-30T00:05:11.864Z,18.80
2022-10-30T00:06:12.081Z,20.20
2022-10-30T00:07:12.236Z,22.90
2022-10-30T00:08:12.388Z,26.60
2022-10-30T00:09:12.562Z,23.40
2022-10-30T00:10:12.744Z,21.30
2022-10-30T00:11:12.976Z,25.60
2022-10-30T00:12:13.106Z,22.60
2022-10-30T00:13:13.241Z,26.10
2022-10-30T00:14:13.423Z,22.60
2022-10-30T00:15:13.593Z,25.50
2022-10-30T00:16:13.772Z,26.20
2022-10-30T00:17:13.976Z,23.20
2022-10-30T00:18:14.119Z,20.40
2022-10-30T00:19:14.294Z,20.70
2022-10-30T00:20:14.484Z,26.80
2022-10-30T00:21:14.692Z,23.10
2022-10-30T00:22:14.861Z,22.20
2022-10-30T00:23:15.004Z,27.00
2022-10-30T00:24:15.184Z,22.00
2022-10-30T00:25:15.353Z,24.40
2022-10-30T00:26:15.541Z,21.10
2022-10-30T00:27:15.744Z,23.90
2022-10-30T00:28:15.883Z,27.10
2022-10-30T00:29:16.053Z,26.80
2022-10-30T00:30:16.234Z,23.00
2022-10-30T00:31:16.424Z,25.60
2022-10-30T00:32:16.614Z,22.00
2022-10-30T00:33:16.805Z,17.10
2022-10-30T00:34:16.955Z,24.00
2022-10-30T00:35:17.146Z,23.70
2022-10-30T00:36:17.295Z,24.70
2022-10-30T00:37:17.505Z,21.70
2022-10-30T00:38:17.658Z,21.90
2022-10-30T00:39:17.836Z,25.90
2022-10-30T00:40:18.025Z,22.70
2022-10-30T00:41:18.226Z,24.20
2022-10-30T00:42:18.373Z,25.70
2022-10-30T00:43:18.565Z,19.80
2022-10-30T00:44:18.715Z,18.00
2022-10-30T00:45:18.909Z,20.20
2022-10-30T00:46:19.076Z,20.60
2022-10-30T00:47:19.286Z,22.70
2022-10-30T00:48:19.436Z,21.00
2022-10-30T00:49:19.621Z,25.80
2022-10-30T00:50:19.847Z,25.60
2022-10-30T00:51:19.973Z,25.50
2022-10-30T00:52:20.145Z,24.60
2022-10-30T00:53:20.318Z,21.10
2022-10-30T00:54:20.457Z,23.30
2022-10-30T00:55:20.641Z,26.40
2022-10-30T00:56:20.789Z,26.60
2022-10-30T00:57:20.976Z,25.70
2022-10-30T00:58:21.128Z,24.60
2022-10-30T00:59:21.305Z,18.10
2022-10-30T01:00:21.458Z,28.90
2022-10-30T01:01:21.694Z,20.30
2022-10-30T01:02:21.938Z,26.20
2022-10-30T01:03:21.966Z,22.70
2022-10-30T01:04:27.293Z,22.00
2022-10-30T01:05:23.315Z,21.00
2022-10-30T01:06:22.475Z,30.00
2022-10-30T01:07:22.667Z,20.90
2022-10-30T01:08:22.869Z,23.00
2022-10-30T01:09:23.009Z,20.20
2022-10-30T01:10:23.176Z,27.60
2022-10-30T01:11:23.356Z,25.30
2022-10-30T01:12:23.556Z,25.10
2022-10-30T01:13:23.713Z,27.10
2022-10-30T01:14:23.896Z,19.40
2022-10-30T01:15:24.065Z,17.80
2022-10-30T01:16:24.237Z,22.20
2022-10-30T01:17:24.436Z,22.10
2022-10-30T01:18:24.585Z,23.10
2022-10-30T01:19:24.776Z,21.60
2022-10-30T01:20:24.948Z,22.90
2022-10-30T01:21:25.118Z,21.00
2022-10-30T01:22:25.315Z,22.30
2022-10-30T01:23:25.467Z,24.80
2022-10-30T01:24:25.645Z,24.10
2022-10-30T01:25:25.835Z,31.50
2022-10-30T01:26:26.016Z,18.90
2022-10-30T01:27:26.208Z,22.70
2022-10-30T01:28:26.375Z,19.30
2022-10-30T01:29:26.545Z,26.60
2022-10-30T01:30:26.716Z,22.90
2022-10-30T01:31:26.906Z,18.80
2022-10-30T01:32:27.086Z,24.60
2022-10-30T01:33:27.264Z,23.90
2022-10-30T01:34:27.525Z,19.90
2022-10-30T01:35:27.616Z,23.70
2022-10-30T01:36:27.786Z,22.60
2022-10-30T01:37:27.984Z,22.20
2022-10-30T01:38:28.147Z,28.30
2022-10-30T01:39:28.320Z,25.90
2022-10-30T01:40:28.503Z,22.80
2022-10-30T01:41:28.667Z,25.10
2022-10-30T01:42:28.857Z,20.70
2022-10-30T01:43:29.009Z,24.50
2022-10-30T01:44:29.186Z,20.50
2022-10-30T01:45:29.356Z,24.50
2022-10-30T01:46:29.536Z,22.50
2022-10-30T01:47:29.726Z,23.80
2022-10-30T01:48:29.898Z,20.10
2022-10-30T01:49:30.071Z,17.20
2022-10-30T01:50:30.233Z,23.10
2022-10-30T01:51:30.416Z,17.30
2022-10-30T01:52:30.603Z,19.90
2022-10-30T01:53:30.767Z,23.50
2022-10-30T01:54:30.936Z,20.80
2022-10-30T01:55:31.105Z,19.20
2022-10-30T01:56:31.278Z,26.40
2022-10-30T01:57:31.487Z,24.70
2022-10-30T01:58:31.636Z,24.20
2022-10-30T01:59:31.805Z,21.60
2022-10-30T02:00:31.989Z,23.40
2022-10-30T02:01:32.346Z,21.70
2022-10-30T02:02:32.451Z,24.00
2022-10-30T02:03:32.517Z,18.50
2022-10-30T02:04:32.686Z,23.30
2022-10-30T02:05:32.862Z,20.20
2022-10-30T02:06:33.027Z,17.60
2022-10-30T02:07:33.217Z,18.40
2022-10-30T02:08:33.392Z,18.30
2022-10-30T02:09:33.653Z,20.70
2022-10-30T02:10:33.727Z,18.00
2022-10-30T02:11:33.899Z,23.40
2022-10-30T02:12:34.086Z,18.90
2022-10-30T02:13:34.264Z,20.70
2022-10-30T02:14:34.437Z,17.70
2022-10-30T02:15:34.617Z,24.00
2022-10-30T02:16:34.793Z,16.20
2022-10-30T02:17:34.975Z,20.00
2022-10-30T02:18:35.170Z,19.30
2022-10-30T02:19:35.320Z,19.90
2022-10-30T02:20:35.488Z,18.70
2022-10-30T02:21:35.667Z,15.10
2022-10-30T02:22:35.902Z,21.70
2022-10-30T02:23:35.998Z,23.00
2022-10-30T02:24:36.170Z,19.60
2022-10-30T02:25:36.345Z,23.00
2022-10-30T02:26:36.508Z,23.20
2022-10-30T02:27:36.699Z,21.90
2022-10-30T02:28:36.837Z,24.60
2022-10-30T02:29:37.014Z,21.90
2022-10-30T02:30:37.177Z,20.60
2022-10-30T02:31:37.347Z,21.00
2022-10-30T02:32:37.547Z,23.40
2022-10-30T02:33:37.701Z,22.30
2022-10-30T02:34:37.875Z,20.00
2022-10-30T02:35:38.050Z,30.30
2022-10-30T02:36:38.217Z,18.90
2022-10-30T02:37:38.398Z,20.60
2022-10-30T02:38:38.568Z,31.20
2022-10-30T02:39:38.760Z,18.20
2022-10-30T02:40:38.920Z,22.60
2022-10-30T02:41:39.108Z,16.80
2022-10-30T02:42:39.289Z,18.10
2022-10-30T02:43:39.465Z,19.80
2022-10-30T02:44:39.628Z,19.80
2022-10-30T02:45:39.800Z,16.80
2022-10-30T02:46:39.969Z,19.50
2022-10-30T02:47:40.149Z,21.60
2022-10-30T02:48:40.301Z,24.60
2022-10-30T02:49:40.497Z,22.30
2022-10-30T02:50:40.638Z,21.90
2022-10-30T02:51:40.828Z,23.40
2022-10-30T02:52:41.028Z,23.00
2022-10-30T02:53:41.201Z,20.90
2022-10-30T02:54:41.368Z,17.80
2022-10-30T02:55:41.538Z,21.60
2022-10-30T02:56:41.707Z,20.60
2022-10-30T02:57:41.903Z,23.90
2022-10-30T02:58:42.064Z,26.80
2022-10-30T02:59:42.222Z,17.70
2022-10-30T03:00:42.403Z,20.60
2022-10-30T03:01:42.729Z,21.00
2022-10-30T03:02:42.835Z,22.90
2022-10-30T03:03:42.946Z,24.80
2022-10-30T03:04:43.128Z,26.40
2022-10-30T03:05:43.309Z,22.40
2022-10-30T03:06:43.478Z,25.50
2022-10-30T03:07:43.680Z,23.50
2022-10-30T03:08:43.834Z,25.10
2022-10-30T03:09:44.020Z,21.50
2022-10-30T03:10:44.190Z,20.40
2022-10-30T03:11:44.385Z,22.90
2022-10-30T03:12:44.539Z,15.70
2022-10-30T03:13:44.708Z,19.80
2022-10-30T03:14:44.879Z,17.10
2022-10-30T03:15:45.059Z,17.40
2022-10-30T03:16:45.229Z,19.80
2022-10-30T03:17:45.422Z,18.30
2022-10-30T03:18:45.565Z,19.90
2022-10-30T03:19:45.748Z,24.80
2022-10-30T03:20:45.918Z,18.20
2022-10-30T03:21:46.089Z,16.00
2022-10-30T03:22:46.280Z,20.30
2022-10-30T03:23:46.454Z,17.00
2022-10-30T03:24:46.622Z,21.50
2022-10-30T03:25:46.800Z,17.50
2022-10-30T03:26:46.969Z,15.10
2022-10-30T03:27:47.157Z,23.00
2022-10-30T03:28:47.319Z,18.70
2022-10-30T03:29:47.499Z,16.20
2022-10-30T03:30:47.668Z,23.00
2022-10-30T03:31:47.841Z,20.80
2022-10-30T03:32:48.022Z,18.10
2022-10-30T03:33:48.199Z,24.90
2022-10-30T03:34:48.384Z,24.60
2022-10-30T03:35:48.550Z,17.90
2022-10-30T03:36:48.721Z,18.90
2022-10-30T03:37:48.912Z,20.70
2022-10-30T03:38:49.082Z,18.30
2022-10-30T03:39:49.250Z,13.10
2022-10-30T03:40:49.420Z,22.40
2022-10-30T03:41:49.589Z,13.90
2022-10-30T03:42:49.780Z,16.70
2022-10-30T03:43:49.949Z,15.60
2022-10-30T03:44:50.124Z,16.80
2022-10-30T03:45:50.290Z,16.50
2022-10-30T03:46:50.460Z,21.90
2022-10-30T03:47:50.658Z,14.10
2022-10-30T03:48:50.789Z,21.40
2022-10-30T03:49:50.968Z,21.30
2022-10-30T03:50:51.141Z,20.30
2022-10-30T03:51:51.311Z,16.80
2022-10-30T03:52:51.501Z,17.70
2022-10-30T03:53:51.677Z,14.10
2022-10-30T03:54:51.851Z,18.50
2022-10-30T03:55:52.024Z,18.30
2022-10-30T03:56:52.189Z,11.00
2022-10-30T03:57:52.381Z,16.70
2022-10-30T03:58:52.553Z,16.60
2022-10-30T03:59:52.719Z,17.00
2022-10-30T04:00:52.889Z,15.90
2022-10-30T04:01:53.240Z,11.50
2022-10-30T04:02:53.235Z,13.10
2022-10-30T04:03:53.410Z,15.30
2022-10-30T04:04:53.570Z,13.80
2022-10-30T04:05:53.748Z,14.00
2022-10-30T04:06:53.911Z,13.00
2022-10-30T04:07:54.110Z,17.90
2022-10-30T04:08:54.240Z,12.50
2022-10-30T04:09:54.418Z,14.40
2022-10-30T04:10:54.638Z,17.60
2022-10-30T04:11:54.778Z,16.50
2022-10-30T04:12:55.133Z,11.60
2022-10-30T04:13:55.121Z,18.80
2022-10-30T04:14:55.290Z,15.10
2022-10-30T04:15:57.983Z,13.10
2022-10-30T04:16:55.701Z,13.60
2022-10-30T04:17:56.187Z,15.70
2022-10-30T04:18:56.000Z,11.90
2022-10-30T04:19:56.170Z,13.00
2022-10-30T04:20:56.342Z,15.70
2022-10-30T04:21:56.511Z,12.20
2022-10-30T04:22:56.707Z,18.60
2022-10-30T04:23:56.871Z,12.00
2022-10-30T04:24:57.049Z,11.80
2022-10-30T04:25:57.213Z,15.70
2022-10-30T04:26:57.403Z,13.70
2022-10-30T04:27:57.967Z,13.50
2022-10-30T04:28:57.740Z,14.80
2022-10-30T04:29:57.913Z,11.60
2022-10-30T04:30:58.089Z,13.90
2022-10-30T04:31:58.289Z,12.30
2022-10-30T04:32:58.679Z,15.10
2022-10-30T04:33:58.571Z,15.40
2022-10-30T04:34:58.743Z,13.30
2022-10-30T04:35:58.911Z,21.20
2022-10-30T04:36:59.111Z,15.10
2022-10-30T04:37:59.260Z,15.00
2022-10-30T04:38:59.431Z,15.10
2022-10-30T04:39:59.602Z,12.00
2022-10-30T04:40:59.780Z,17.60
2022-10-30T04:41:59.997Z,13.30
2022-10-30T04:43:00.433Z,19.20
2022-10-30T04:44:00.302Z,17.80
2022-10-30T04:45:03.199Z,12.60
2022-10-30T04:46:00.662Z,14.80
2022-10-30T04:47:00.831Z,12.70
2022-10-30T04:48:01.263Z,13.90
2022-10-30T04:49:01.179Z,17.80
2022-10-30T04:50:01.353Z,13.30
2022-10-30T04:51:01.533Z,13.00
2022-10-30T04:52:01.703Z,10.60
2022-10-30T04:53:01.894Z,14.10
2022-10-30T04:54:02.037Z,11.40
2022-10-30T04:55:02.212Z,16.20
2022-10-30T04:56:02.382Z,11.80
2022-10-30T04:57:02.561Z,14.60
2022-10-30T04:58:02.743Z,17.40
2022-10-30T04:59:02.919Z,14.00
2022-10-30T05:00:03.091Z,14.50
2022-10-30T05:01:03.607Z,15.90
2022-10-30T05:02:03.570Z,12.90
2022-10-30T05:03:03.634Z,15.10
2022-10-30T05:04:03.802Z,12.90
2022-10-30T05:05:03.972Z,14.00
2022-10-30T05:06:04.145Z,14.30
2022-10-30T05:07:04.311Z,15.40
2022-10-30T05:08:04.500Z,15.60
2022-10-30T05:09:04.669Z,19.10
2022-10-30T05:10:04.841Z,15.30
2022-10-30T05:11:05.019Z,19.70
2022-10-30T05:12:05.191Z,15.90
2022-10-30T05:13:05.378Z,17.80
2022-10-30T05:14:05.542Z,16.10
2022-10-30T05:15:05.714Z,15.40
2022-10-30T05:16:05.902Z,14.40
2022-10-30T05:17:06.052Z,14.20
2022-10-30T05:18:06.243Z,12.80
2022-10-30T05:19:06.413Z,14.90
2022-10-30T05:20:06.582Z,15.20
2022-10-30T05:21:06.755Z,12.50
2022-10-30T05:22:06.922Z,13.40
2022-10-30T05:23:07.103Z,14.10
2022-10-30T05:24:07.282Z,12.00
2022-10-30T05:25:07.451Z,18.40
2022-10-30T05:26:07.621Z,10.70
2022-10-30T05:27:07.792Z,14.30
2022-10-30T05:28:07.979Z,14.50
2022-10-30T05:29:08.146Z,10.80
2022-10-30T05:30:08.302Z,14.40
2022-10-30T05:31:08.480Z,12.40
2022-10-30T05:32:08.705Z,15.60
2022-10-30T05:33:08.854Z,19.50
2022-10-30T05:34:08.995Z,16.80
2022-10-30T05:35:09.171Z,16.90
2022-10-30T05:36:09.324Z,18.70
2022-10-30T05:37:09.503Z,13.80
2022-10-30T05:38:09.684Z,10.90
2022-10-30T05:39:09.863Z,14.80
2022-10-30T05:40:10.037Z,14.00
2022-10-30T05:41:10.233Z,13.90
2022-10-30T05:42:13.692Z,13.70
2022-10-30T05:43:10.574Z,10.10
2022-10-30T05:44:10.733Z,19.30
2022-10-30T05:45:10.936Z,14.50
2022-10-30T05:46:11.090Z,13.20
2022-10-30T05:47:11.244Z,13.40
2022-10-30T05:48:11.416Z,27.10
2022-10-30T05:49:11.573Z,17.90
2022-10-30T05:50:11.732Z,15.70
2022-10-30T05:51:11.893Z,11.70
2022-10-30T05:52:12.053Z,9.70
2022-10-30T05:53:12.253Z,11.40
2022-10-30T05:54:12.433Z,15.50
2022-10-30T05:55:12.593Z,13.40
2022-10-30T05:56:12.754Z,13.20
2022-10-30T05:57:12.926Z,12.80
2022-10-30T05:58:13.111Z,13.00
2022-10-30T05:59:13.290Z,17.70
2022-10-30T06:00:13.454Z,14.60
2022-10-30T06:01:13.692Z,14.10
2022-10-30T06:02:13.979Z,15.40
2022-10-30T06:03:13.995Z,18.10
2022-10-30T06:04:14.161Z,11.50
2022-10-30T06:05:14.359Z,11.50
2022-10-30T06:06:14.504Z,12.40
2022-10-30T06:07:14.700Z,16.10
2022-10-30T06:08:14.863Z,10.30
2022-10-30T06:09:15.074Z,15.00
2022-10-30T06:10:15.224Z,13.10
2022-10-30T06:11:15.396Z,15.50
2022-10-30T06:12:15.544Z,13.50
2022-10-30T06:13:15.756Z,18.30
2022-10-30T06:14:15.904Z,12.50
2022-10-30T06:15:16.094Z,13.60
2022-10-30T06:16:16.284Z,13.60
2022-10-30T06:17:16.475Z,15.80
2022-10-30T06:18:16.704Z,13.40
2022-10-30T06:19:18.831Z,15.80
2022-10-30T06:20:16.996Z,22.10
2022-10-30T06:21:17.217Z,20.10
2022-10-30T06:22:17.344Z,12.30
2022-10-30T06:23:17.548Z,10.00
2022-10-30T06:24:17.705Z,14.50
2022-10-30T06:25:17.901Z,13.90
2022-10-30T06:26:18.052Z,12.20
2022-10-30T06:27:18.242Z,15.50
2022-10-30T06:28:18.406Z,16.80
2022-10-30T06:29:18.575Z,11.70
2022-10-30T06:30:18.726Z,13.10
2022-10-30T06:32:19.094Z,10.00
2022-10-30T06:33:19.302Z,11.00
2022-10-30T06:34:19.466Z,13.50
2022-10-30T06:35:19.654Z,13.70
2022-10-30T06:36:19.817Z,16.70
2022-10-30T06:37:20.028Z,17.60
2022-10-30T06:38:20.165Z,9.20
2022-10-30T06:39:20.325Z,13.60
2022-10-30T06:40:20.506Z,11.90
2022-10-30T06:41:23.344Z,14.80
2022-10-30T06:42:21.874Z,14.60
2022-10-30T06:43:21.080Z,13.60
2022-10-30T06:44:21.209Z,10.50
2022-10-30T06:45:21.390Z,11.90
2022-10-30T06:46:21.562Z,21.00
2022-10-30T06:47:21.745Z,19.90
2022-10-30T06:48:21.941Z,21.70
2022-10-30T06:49:22.096Z,11.50
2022-10-30T06:50:22.344Z,14.30
2022-10-30T06:51:22.425Z,10.80
2022-10-30T06:52:22.574Z,12.70
2022-10-30T06:53:22.756Z,14.00
2022-10-30T06:54:22.905Z,16.90
2022-10-30T06:55:23.103Z,14.50
2022-10-30T06:56:23.255Z,16.50
2022-10-30T06:57:23.454Z,11.10
2022-10-30T06:58:23.625Z,10.00
2022-10-30T06:59:23.786Z,10.90
2022-10-30T07:00:23.945Z,13.30
2022-10-30T07:01:24.215Z,15.20
2022-10-30T07:02:24.372Z,15.10
2022-10-30T07:03:24.489Z,14.30
2022-10-30T07:04:24.646Z,13.40
2022-10-30T07:05:24.805Z,17.90
2022-10-30T07:06:24.965Z,17.40
2022-10-30T07:07:25.135Z,16.50
2022-10-30T07:08:25.348Z,11.00
2022-10-30T07:09:25.476Z,10.60
2022-10-30T07:10:25.702Z,13.80
2022-10-30T07:11:25.824Z,14.30
2022-10-30T07:12:25.975Z,14.30
2022-10-30T07:13:26.164Z,14.60
2022-10-30T07:14:26.306Z,10.60
2022-10-30T07:15:26.499Z,15.80
2022-10-30T07:16:26.664Z,12.90
2022-10-30T07:17:26.826Z,11.00
2022-10-30T07:18:26.994Z,13.90
2022-10-30T07:19:27.147Z,14.30
2022-10-30T07:20:27.306Z,15.00
2022-10-30T07:21:27.504Z,11.50
2022-10-30T07:22:27.729Z,12.70
2022-10-30T07:23:27.858Z,16.00
2022-10-30T07:24:28.010Z,18.40
2022-10-30T07:25:28.165Z,9.50
2022-10-30T07:26:28.344Z,14.90
2022-10-30T07:27:28.536Z,14.40
2022-10-30T07:28:28.707Z,14.30
2022-10-30T07:29:28.867Z,8.80
2022-10-30T07:30:29.050Z,12.50
2022-10-30T07:31:41.826Z,12.80
2022-10-30T07:32:30.367Z,16.20
2022-10-30T07:33:29.557Z,9.40
2022-10-30T07:34:29.701Z,14.00
2022-10-30T07:35:29.857Z,12.30
2022-10-30T07:36:30.017Z,14.00
2022-10-30T07:37:30.207Z,17.60
2022-10-30T07:38:30.377Z,14.40
2022-10-30T07:39:30.546Z,10.60
2022-10-30T07:40:30.699Z,11.70
2022-10-30T07:41:30.887Z,10.60
2022-10-30T07:42:31.048Z,17.80
2022-10-30T07:43:31.256Z,14.30
2022-10-30T07:44:31.417Z,13.60
2022-10-30T07:45:31.591Z,12.30
2022-10-30T07:46:31.740Z,14.40
2022-10-30T07:47:31.947Z,16.10
2022-10-30T07:48:32.098Z,19.50
2022-10-30T07:49:32.289Z,16.10
2022-10-30T07:50:32.439Z,15.90
2022-10-30T07:51:32.657Z,16.20
2022-10-30T07:52:32.820Z,9.90
2022-10-30T07:53:32.970Z,11.70
2022-10-30T07:54:33.129Z,16.30
2022-10-30T07:55:33.289Z,10.90
2022-10-30T07:56:33.452Z,11.70
2022-10-30T07:57:33.620Z,10.40
2022-10-30T07:58:33.769Z,17.50
2022-10-30T07:59:33.971Z,9.60
2022-10-30T08:00:34.164Z,13.10
2022-10-30T08:01:34.407Z,17.30
2022-10-30T08:02:34.682Z,13.90
2022-10-30T08:03:34.669Z,13.40
2022-10-30T08:04:34.819Z,13.50
2022-10-30T08:05:35.032Z,9.30
2022-10-30T08:06:35.210Z,11.50
2022-10-30T08:07:35.387Z,11.50
2022-10-30T08:08:39.070Z,10.70
2022-10-30T08:09:36.711Z,11.50
2022-10-30T08:10:35.889Z,13.70
2022-10-30T08:11:36.070Z,13.90
2022-10-30T08:12:36.271Z,9.30
2022-10-30T08:13:36.438Z,13.20
2022-10-30T08:14:36.600Z,12.80
2022-10-30T08:15:36.781Z,12.20
2022-10-30T08:16:36.959Z,9.10
2022-10-30T08:17:37.151Z,12.10
2022-10-30T08:18:37.311Z,14.60
2022-10-30T08:19:37.492Z,9.00
2022-10-30T08:20:37.702Z,7.10
2022-10-30T08:21:37.821Z,10.10
2022-10-30T08:22:38.015Z,11.10
2022-10-30T08:23:38.193Z,10.30
2022-10-30T08:24:38.373Z,11.30
2022-10-30T08:25:38.564Z,9.50
2022-10-30T08:26:38.731Z,8.20
2022-10-30T08:27:38.928Z,14.10
2022-10-30T08:28:39.082Z,12.30
2022-10-30T08:29:39.246Z,10.80
2022-10-30T08:30:39.411Z,17.90
2022-10-30T08:31:39.574Z,13.30
2022-10-30T08:32:39.744Z,12.60
2022-10-30T08:33:39.892Z,12.90
2022-10-30T08:34:40.097Z,12.90
2022-10-30T08:35:40.276Z,12.10
2022-10-30T08:36:42.727Z,8.40
2022-10-30T08:37:40.617Z,12.90
2022-10-30T08:38:40.783Z,16.00
2022-10-30T08:39:40.934Z,13.80
2022-10-30T08:40:41.162Z,16.00
2022-10-30T08:41:41.284Z,13.40
2022-10-30T08:42:41.495Z,13.80
2022-10-30T08:43:41.646Z,13.90
2022-10-30T08:44:41.836Z,10.40
2022-10-30T08:45:42.007Z,10.80
2022-10-30T08:46:42.163Z,13.60
2022-10-30T08:47:42.336Z,16.10
2022-10-30T08:48:42.506Z,9.10
2022-10-30T08:49:42.676Z,10.00
2022-10-30T08:50:42.846Z,11.10
2022-10-30T08:51:42.998Z,9.80
2022-10-30T08:52:43.218Z,7.50
2022-10-30T08:53:43.360Z,13.20
2022-10-30T08:54:43.517Z,9.00
2022-10-30T08:55:43.689Z,10.70
2022-10-30T08:56:43.867Z,12.90
2022-10-30T08:57:44.059Z,7.00
2022-10-30T08:58:44.235Z,9.50
2022-10-30T08:59:44.408Z,11.20
2022-10-30T09:00:44.568Z,11.50
2022-10-30T09:01:44.824Z,11.10
2022-10-30T09:02:45.013Z,8.50
2022-10-30T09:03:45.088Z,7.90
2022-10-30T09:04:45.258Z,7.90
2022-10-30T09:05:45.457Z,11.20
2022-10-30T09:06:45.608Z,10.40
2022-10-30T09:07:45.817Z,12.30
2022-10-30T09:08:45.970Z,9.00
2022-10-30T09:09:46.170Z,7.10
2022-10-30T09:10:46.319Z,9.10
2022-10-30T09:11:46.535Z,11.90
2022-10-30T09:12:46.699Z,13.10
2022-10-30T09:13:46.860Z,11.10
2022-10-30T09:14:47.020Z,12.70
2022-10-30T09:15:47.201Z,9.20
2022-10-30T09:16:47.389Z,13.00
2022-10-30T09:17:47.588Z,9.70
2022-10-30T09:18:47.781Z,7.30
2022-10-30T09:20:48.099Z,12.80
2022-10-30T09:21:48.286Z,11.30
2022-10-30T09:22:48.489Z,12.80
2022-10-30T09:23:48.632Z,12.90
2022-10-30T09:24:48.803Z,7.30
2022-10-30T09:25:48.983Z,9.70
2022-10-30T09:26:49.163Z,6.60
2022-10-30T09:27:49.370Z,11.30
2022-10-30T09:28:49.524Z,8.70
2022-10-30T09:29:49.703Z,7.80
2022-10-30T09:30:49.884Z,15.30
2022-10-30T09:31:50.034Z,7.20
2022-10-30T09:32:54.832Z,8.50
2022-10-30T09:33:50.384Z,10.90
2022-10-30T09:34:50.589Z,12.40
2022-10-30T09:35:50.734Z,11.90
2022-10-30T09:36:50.916Z,9.60
2022-10-30T09:37:51.055Z,9.10
2022-10-30T09:38:51.236Z,10.00
2022-10-30T09:39:51.384Z,9.40
2022-10-30T09:40:51.577Z,7.00
2022-10-30T09:41:51.777Z,9.70
2022-10-30T09:42:51.954Z,16.80
2022-10-30T09:43:52.106Z,8.60
2022-10-30T09:45:08.123Z,12.10
2022-10-30T09:45:53.460Z,6.40
2022-10-30T09:46:52.664Z,11.20
2022-10-30T09:47:52.807Z,11.70
2022-10-30T09:48:53.000Z,10.20
2022-10-30T09:49:53.159Z,13.80
2022-10-30T09:50:53.337Z,10.60
2022-10-30T09:51:53.509Z,9.10
2022-10-30T09:52:53.683Z,15.10
2022-10-30T09:53:53.828Z,11.60
2022-10-30T09:54:54.030Z,8.60
2022-10-30T09:55:54.209Z,8.40
2022-10-30T09:56:59.425Z,8.80
2022-10-30T09:57:55.569Z,12.90
2022-10-30T09:58:54.739Z,11.00
2022-10-30T09:59:54.898Z,10.40
2022-10-30T10:00:57.063Z,8.60
2022-10-30T10:01:55.299Z,6.40
2022-10-30T10:02:55.428Z,11.80
2022-10-30T10:03:55.563Z,9.70
2022-10-30T10:04:55.747Z,7.20
2022-10-30T10:05:55.922Z,8.20
2022-10-30T10:06:56.122Z,10.20
2022-10-30T10:07:56.615Z,11.90
2022-10-30T10:08:56.440Z,17.40
2022-10-30T10:09:56.625Z,9.90
2022-10-30T10:10:56.790Z,12.10
2022-10-30T10:11:56.935Z,10.50
2022-10-30T10:13:01.065Z,13.90
2022-10-30T10:13:57.271Z,8.00
2022-10-30T10:14:57.462Z,6.90
2022-10-30T10:15:57.665Z,14.30
2022-10-30T10:16:57.822Z,13.40
2022-10-30T10:17:57.984Z,7.30
2022-10-30T10:18:58.172Z,9.00
2022-10-30T10:19:58.323Z,8.70
2022-10-30T10:20:58.522Z,9.50
2022-10-30T10:21:58.692Z,14.40
2022-10-30T10:22:59.072Z,9.50
2022-10-30T10:23:59.023Z,10.30
2022-10-30T10:24:59.223Z,10.90
2022-10-30T10:25:59.410Z,11.30
2022-10-30T10:26:59.553Z,16.70
2022-10-30T10:27:59.713Z,8.30
2022-10-30T10:28:59.892Z,8.90
2022-10-30T10:30:00.084Z,10.80
2022-10-30T10:31:00.295Z,4.70
2022-10-30T10:32:00.434Z,12.70
2022-10-30T10:33:01.040Z,10.00
2022-10-30T10:34:00.765Z,10.50
2022-10-30T10:35:00.925Z,12.50
2022-10-30T10:36:01.113Z,10.90
2022-10-30T10:37:01.266Z,11.40
2022-10-30T10:38:01.861Z,14.30
2022-10-30T10:39:01.589Z,11.40
2022-10-30T10:40:01.757Z,14.80
2022-10-30T10:41:01.914Z,9.70
2022-10-30T10:42:02.105Z,9.60
2022-10-30T10:43:02.284Z,9.00
2022-10-30T10:44:02.466Z,10.50
2022-10-30T10:45:02.624Z,11.90
2022-10-30T10:46:02.856Z,8.40
2022-10-30T10:47:06.879Z,9.90
2022-10-30T10:48:03.479Z,13.00
2022-10-30T10:49:03.285Z,6.70
2022-10-30T10:50:03.464Z,9.80
2022-10-30T10:51:03.666Z,15.30
2022-10-30T10:52:03.820Z,11.30
2022-10-30T10:53:04.016Z,10.50
2022-10-30T10:54:04.138Z,11.50
2022-10-30T10:55:04.343Z,11.40
2022-10-30T10:56:04.517Z,18.30
2022-10-30T10:57:04.677Z,12.90
2022-10-30T10:58:04.869Z,11.80
2022-10-30T10:59:05.006Z,12.60
2022-10-30T11:00:05.168Z,9.70
2022-10-30T11:01:05.387Z,9.60
2022-10-30T11:02:05.710Z,8.30
2022-10-30T11:03:05.829Z,9.40
2022-10-30T11:04:05.887Z,6.70
2022-10-30T11:05:06.078Z,8.30
2022-10-30T11:06:06.258Z,9.30
2022-10-30T11:07:06.418Z,10.00
2022-10-30T11:08:06.583Z,7.50
2022-10-30T11:09:06.759Z,12.00
2022-10-30T11:10:06.909Z,9.80
2022-10-30T11:11:07.108Z,10.20
2022-10-30T11:12:07.262Z,10.00
2022-10-30T11:13:07.456Z,10.70
2022-10-30T11:14:07.609Z,11.70
2022-10-30T11:15:07.811Z,9.90
2022-10-30T11:16:08.008Z,14.70
2022-10-30T11:17:08.159Z,7.80
2022-10-30T11:18:08.348Z,11.10
2022-10-30T11:19:08.504Z,8.20
2022-10-30T11:20:08.681Z,10.20
2022-10-30T11:21:08.889Z,12.00
2022-10-30T11:22:09.061Z,14.40
2022-10-30T11:23:09.220Z,11.20
2022-10-30T11:24:09.380Z,7.70
2022-10-30T11:25:09.569Z,10.90
2022-10-30T11:26:09.730Z,12.60
2022-10-30T11:27:09.898Z,9.40
2022-10-30T11:28:10.071Z,9.40
2022-10-30T11:29:10.260Z,14.50
2022-10-30T11:30:10.413Z,12.10
2022-10-30T11:31:10.622Z,9.70
2022-10-30T11:32:10.792Z,14.70
2022-10-30T11:33:10.959Z,12.40
2022-10-30T11:34:11.113Z,4.50
2022-10-30T11:35:11.302Z,10.80
2022-10-30T11:36:15.627Z,8.70
2022-10-30T11:37:11.622Z,12.30
2022-10-30T11:38:11.774Z,6.80
2022-10-30T11:39:11.963Z,9.20
2022-10-30T11:40:12.144Z,16.50
2022-10-30T11:41:12.360Z,7.10
2022-10-30T11:42:12.501Z,9.60
2022-10-30T11:43:12.673Z,9.70
2022-10-30T11:44:12.854Z,16.50
2022-10-30T11:45:13.055Z,9.60
2022-10-30T11:46:13.250Z,9.50
2022-10-30T11:47:13.400Z,10.70
2022-10-30T11:48:14.181Z,10.30
2022-10-30T11:49:13.734Z,11.40
2022-10-30T11:50:13.894Z,14.90
2022-10-30T11:51:14.120Z,14.40
2022-10-30T11:52:14.226Z,7.50
2022-10-30T11:53:14.406Z,14.50
2022-10-30T11:54:14.565Z,5.70
2022-10-30T11:55:14.744Z,7.40
2022-10-30T11:56:14.942Z,9.80
2022-10-30T11:57:15.085Z,13.70
2022-10-30T11:58:15.245Z,14.30
2022-10-30T11:59:15.467Z,9.40
2022-10-30T12:00:15.635Z,8.00
2022-10-30T12:01:15.902Z,11.70
2022-10-30T12:02:16.042Z,13.00
2022-10-30T12:03:16.156Z,9.30
2022-10-30T12:04:16.337Z,10.10
2022-10-30T12:05:16.504Z,15.20
2022-10-30T12:06:16.680Z,7.40
2022-10-30T12:07:16.856Z,9.70
2022-10-30T12:08:17.027Z,12.70
2022-10-30T12:09:17.229Z,10.60
2022-10-30T12:10:17.423Z,7.90
2022-10-30T12:11:17.648Z,14.70
2022-10-30T12:12:17.728Z,15.10
2022-10-30T12:13:17.925Z,9.00
2022-10-30T12:14:18.109Z,11.20
2022-10-30T12:15:18.287Z,8.10
2022-10-30T12:16:18.443Z,14.00
2022-10-30T12:17:18.609Z,9.80
2022-10-30T12:18:18.838Z,10.80
2022-10-30T12:19:18.938Z,16.40
2022-10-30T12:20:19.109Z,12.00
2022-10-30T12:21:19.277Z,8.20
2022-10-30T12:22:19.479Z,11.10
2022-10-30T12:23:19.629Z,13.10
2022-10-30T12:24:19.782Z,11.10
2022-10-30T12:25:19.999Z,7.30
2022-10-30T12:26:20.190Z,11.90
2022-10-30T12:27:22.622Z,9.70
2022-10-30T12:28:20.521Z,11.40
2022-10-30T12:29:20.679Z,8.60
2022-10-30T12:30:20.880Z,12.90
2022-10-30T12:31:21.038Z,14.00
2022-10-30T12:32:21.218Z,7.50
2022-10-30T12:33:21.351Z,12.10
2022-10-30T12:34:21.517Z,10.50
2022-10-30T12:35:21.693Z,6.30
2022-10-30T12:36:21.859Z,9.00
2022-10-30T12:37:22.051Z,12.20
2022-10-30T12:38:22.209Z,11.80
2022-10-30T12:39:22.401Z,3.70
2022-10-30T12:40:22.601Z,6.50
2022-10-30T12:41:22.750Z,13.10
2022-10-30T12:42:22.902Z,11.90
2022-10-30T12:43:23.105Z,7.90
2022-10-30T12:44:23.283Z,10.00
2022-10-30T12:45:23.482Z,9.20
2022-10-30T12:46:23.632Z,14.60
2022-10-30T12:47:23.811Z,13.20
2022-10-30T12:48:23.971Z,14.50
2022-10-30T12:49:24.122Z,7.50
2022-10-30T12:50:24.321Z,11.40
2022-10-30T12:51:24.493Z,12.30
2022-10-30T12:52:24.642Z,10.70
2022-10-30T12:53:24.792Z,10.20
2022-10-30T12:54:25.003Z,9.00
2022-10-30T12:55:25.174Z,14.50
2022-10-30T12:56:25.324Z,11.60
2022-10-30T12:57:25.495Z,12.80
2022-10-30T12:58:25.654Z,12.30
2022-10-30T12:59:25.815Z,6.70
2022-10-30T13:00:26.015Z,8.40